Time;durP1;ratioP1;P1;durP2;ratioP2;P2;SDS_P1;SDS_P2;PMS_P1;PMS_P2;Temp;Humidity;BMP_temperature;BMP_pressure;BME280_temperature;BME280_humidity;BME280_pressure;Samples;Min_cycle;Max_cycle;Signal;HPM_P1;HPM_P2
2021/11/25 00:00:00;;;;;;;9.37;6.30;;;;;;;5.51;76.26;100661.09;5025635;28;20234;-81
2021/11/25 00:02:27;;;;;;;7.77;6.20;;;;;;;5.50;76.15;100662.03;5022123;28;20213;-81
2021/11/25 00:04:53;;;;;;;8.67;5.57;;;;;;;5.50;76.18;100659.38;5025684;28;20205;-82
2021/11/25 00:07:20;;;;;;;7.63;5.87;;;;;;;5.49;76.35;100654.16;5024174;28;20615;-83
2021/11/25 00:09:47;;;;;;;7.60;5.37;;;;;;;5.50;76.57;100654.09;5021321;28;20223;-80
2021/11/25 00:12:14;;;;;;;7.53;5.87;;;;;;;5.50;76.49;100651.47;5025228;28;20587;-82
2021/11/25 00:14:42;;;;;;;6.57;5.10;;;;;;;5.49;76.43;100649.75;5025520;28;20568;-81
2021/11/25 00:17:08;;;;;;;6.53;5.30;;;;;;;5.49;76.28;100648.88;5033082;28;20207;-81
2021/11/25 00:19:35;;;;;;;7.13;5.33;;;;;;;5.47;75.79;100640.16;5028108;28;20627;-82
2021/11/25 00:22:02;;;;;;;7.17;5.53;;;;;;;5.44;76.08;100635.88;5031461;28;20236;-82
2021/11/25 00:24:28;;;;;;;6.73;5.33;;;;;;;5.43;75.96;100633.28;5026951;28;20205;-82
2021/11/25 00:26:55;;;;;;;6.53;5.00;;;;;;;5.41;75.94;100640.41;5029108;28;20293;-80
2021/11/25 00:29:22;;;;;;;7.37;5.70;;;;;;;5.39;76.03;100629.03;5027282;28;20309;-80
2021/11/25 00:31:50;;;;;;;10.87;5.97;;;;;;;5.39;76.06;100626.41;5027728;28;20614;-81
2021/11/25 00:34:16;;;;;;;6.57;5.07;;;;;;;5.38;76.16;100625.53;5029191;28;20222;-81
2021/11/25 00:36:43;;;;;;;8.03;5.03;;;;;;;5.39;75.71;100619.34;5033828;28;20576;-82
2021/11/25 00:39:10;;;;;;;7.47;6.00;;;;;;;5.39;76.24;100607.91;5031793;28;20293;-82
2021/11/25 00:41:36;;;;;;;7.47;5.50;;;;;;;5.38;76.20;100604.41;5025780;28;20199;-81
2021/11/25 00:44:03;;;;;;;6.77;5.10;;;;;;;5.40;76.02;100607.84;5028965;28;20203;-81
2021/11/25 00:46:30;;;;;;;6.47;5.10;;;;;;;5.41;75.60;100603.44;5032932;28;20207;-81
2021/11/25 00:48:58;;;;;;;8.47;5.73;;;;;;;5.41;76.00;100599.00;5026944;28;20709;-81
2021/11/25 00:51:24;;;;;;;5.73;4.70;;;;;;;5.42;76.04;100592.81;5036028;28;20217;-80
2021/11/25 00:53:51;;;;;;;6.87;5.07;;;;;;;5.42;75.87;100582.25;5024281;28;20238;-80
2021/11/25 00:56:18;;;;;;;7.33;5.03;;;;;;;5.41;75.69;100575.25;5028302;28;20214;-81
2021/11/25 00:58:44;;;;;;;8.10;5.47;;;;;;;5.42;75.76;100573.47;5034379;28;20238;-81
2021/11/25 01:01:11;;;;;;;6.70;4.60;;;;;;;5.43;75.57;100570.75;5028444;28;20210;-82
2021/11/25 01:03:37;;;;;;;5.30;4.60;;;;;;;5.45;75.90;100574.19;5021436;28;20294;-81
2021/11/25 01:06:06;;;;;;;10.33;4.67;;;;;;;5.45;75.88;100568.03;5027383;28;20203;-81
2021/11/25 01:08:32;;;;;;;5.93;4.93;;;;;;;5.44;75.58;100568.97;5025625;28;20249;-82
2021/11/25 01:10:59;;;;;;;6.10;4.40;;;;;;;5.42;75.44;100563.75;5022658;28;20581;-81
2021/11/25 01:13:26;;;;;;;6.77;4.73;;;;;;;5.42;75.54;100573.47;5032839;28;20226;-80
2021/11/25 01:15:53;;;;;;;7.30;4.73;;;;;;;5.41;75.04;100572.59;5026467;28;20210;-81
2021/11/25 01:18:23;;;;;;;5.40;3.93;;;;;;;5.43;75.16;100575.19;5025398;28;20223;-81
2021/11/25 01:20:51;;;;;;;6.13;4.30;;;;;;;5.41;75.09;100564.69;5032945;28;20211;-81
2021/11/25 01:23:22;;;;;;;7.47;4.87;;;;;;;5.40;74.94;100560.31;5025047;28;20206;-82
2021/11/25 01:25:51;;;;;;;5.03;4.20;;;;;;;5.39;74.84;100555.97;5028542;28;20210;-81
2021/11/25 01:28:18;;;;;;;8.40;4.70;;;;;;;5.38;74.71;100559.53;5027287;28;20330;-80
2021/11/25 01:30:48;;;;;;;6.63;4.80;;;;;;;5.39;74.63;100549.81;5027430;28;20200;-80
2021/11/25 01:33:15;;;;;;;8.80;5.90;;;;;;;5.41;74.54;100550.63;5021084;28;20211;-82
2021/11/25 01:35:42;;;;;;;7.90;5.57;;;;;;;5.40;74.39;100546.25;5034818;28;20208;-81
2021/11/25 01:38:09;;;;;;;8.23;5.10;;;;;;;5.39;74.16;100537.47;5024108;28;20203;-82
2021/11/25 01:40:38;;;;;;;7.57;4.80;;;;;;;5.37;74.36;100539.34;5026303;28;20202;-82
2021/11/25 01:43:05;;;;;;;7.30;4.60;;;;;;;5.36;73.98;100537.63;5024582;28;20198;-81
2021/11/25 01:45:32;;;;;;;5.93;3.73;;;;;;;5.36;74.21;100536.78;5018021;28;20298;-82
2021/11/25 01:48:00;;;;;;;6.17;3.47;;;;;;;5.35;74.07;100525.34;5024927;28;20218;-81
2021/11/25 01:50:28;;;;;;;4.17;3.40;;;;;;;5.33;73.58;100531.63;5020972;28;20205;-82
2021/11/25 01:52:56;;;;;;;4.57;3.03;;;;;;;5.31;73.03;100518.47;5027498;28;20211;-81
2021/11/25 01:55:25;;;;;;;4.30;3.00;;;;;;;5.31;73.26;100512.34;5025868;28;20223;-81
2021/11/25 01:57:54;;;;;;;4.73;3.67;;;;;;;5.29;72.92;100508.91;5022062;28;20664;-81
2021/11/25 02:00:23;;;;;;;3.63;2.80;;;;;;;5.28;73.01;100517.75;5023647;28;20570;-81
2021/11/25 02:02:51;;;;;;;3.40;2.50;;;;;;;5.27;72.77;100518.69;5020060;28;20665;-81
2021/11/25 02:05:18;;;;;;;3.43;2.63;;;;;;;5.26;72.69;100509.91;5030100;28;20202;-81
2021/11/25 02:07:45;;;;;;;2.77;2.47;;;;;;;5.26;72.38;100515.19;5025914;28;20199;-81
2021/11/25 02:10:12;;;;;;;3.23;2.90;;;;;;;5.26;72.41;100509.91;5025995;28;20246;-81
2021/11/25 02:12:38;;;;;;;3.30;2.60;;;;;;;5.25;72.45;100505.53;5024846;28;20213;-80
2021/11/25 02:15:08;;;;;;;3.27;2.60;;;;;;;5.24;72.13;100498.53;5026811;28;20234;-81
2021/11/25 02:17:35;;;;;;;4.07;3.00;;;;;;;5.25;72.46;100500.25;5027107;28;20202;-82
2021/11/25 02:20:03;;;;;;;4.00;2.90;;;;;;;5.26;72.38;100495.84;5023818;28;20236;-81
2021/11/25 02:22:32;;;;;;;3.07;2.67;;;;;;;5.26;72.13;100501.97;5023407;28;20214;-82
2021/11/25 02:24:58;;;;;;;3.97;2.90;;;;;;;5.26;72.23;100494.06;5033879;28;20669;-82
2021/11/25 02:27:25;;;;;;;2.77;2.47;;;;;;;5.28;72.37;100494.00;5029184;28;20205;-81
2021/11/25 02:29:52;;;;;;;3.87;2.80;;;;;;;5.27;72.26;100479.94;5023763;28;20233;-82
2021/11/25 02:32:29;;;;;;;2.87;2.60;;;;;;;5.27;72.24;100484.34;5023178;28;20577;-81
2021/11/25 02:34:56;;;;;;;4.17;2.87;;;;;;;5.27;72.35;100474.66;5027992;28;20226;-80
2021/11/25 02:37:22;;;;;;;3.53;2.90;;;;;;;5.27;72.00;100474.66;5028233;28;20240;-81
2021/11/25 02:39:50;;;;;;;3.10;2.80;;;;;;;5.27;72.22;100469.38;5032008;28;20248;-82
2021/11/25 02:42:17;;;;;;;3.70;3.00;;;;;;;5.28;72.17;100471.09;5031171;28;20207;-81
2021/11/25 02:44:44;;;;;;;3.70;3.23;;;;;;;5.28;71.91;100468.44;5026096;28;20207;-81
2021/11/25 02:47:11;;;;;;;3.93;3.37;;;;;;;5.28;71.78;100472.88;5024352;28;20213;-80
2021/11/25 02:49:39;;;;;;;3.93;3.53;;;;;;;5.27;72.12;100479.94;5015872;28;20230;-81
2021/11/25 02:52:06;;;;;;;4.47;3.27;;;;;;;5.24;72.02;100462.44;5024409;28;20221;-80
2021/11/25 02:54:33;;;;;;;4.17;3.60;;;;;;;5.22;72.14;100453.72;5022979;28;20234;-80
2021/11/25 02:57:01;;;;;;;4.03;3.37;;;;;;;5.23;72.39;100459.84;5029393;28;20208;-80
2021/11/25 02:59:27;;;;;;;4.27;3.23;;;;;;;5.23;72.33;100454.56;5019600;28;20222;-81
2021/11/25 03:01:54;;;;;;;3.37;2.90;;;;;;;5.21;72.42;100456.41;5021800;28;20215;-81
2021/11/25 03:04:21;;;;;;;4.70;3.13;;;;;;;5.22;72.64;100455.50;5029560;28;20199;-81
2021/11/25 03:06:47;;;;;;;3.80;3.20;;;;;;;5.22;72.31;100455.50;5030644;28;20702;-82
2021/11/25 03:09:14;;;;;;;4.83;2.77;;;;;;;5.21;72.57;100452.00;5046502;28;20274;-81
2021/11/25 03:11:40;;;;;;;4.73;2.90;;;;;;;5.20;72.16;100446.78;5047407;28;20554;-81
2021/11/25 03:14:10;;;;;;;3.63;3.30;;;;;;;5.18;72.48;100444.25;5054083;28;20230;-81
2021/11/25 03:16:37;;;;;;;4.30;3.43;;;;;;;5.15;72.06;100447.00;5031549;28;20581;-82
2021/11/25 03:19:04;;;;;;;4.60;3.33;;;;;;;5.15;72.32;100447.00;5045737;28;20225;-81
2021/11/25 03:21:31;;;;;;;15.27;4.17;;;;;;;5.14;72.40;100444.44;5052835;28;20335;-81
2021/11/25 03:23:58;;;;;;;4.33;3.20;;;;;;;5.13;72.28;100445.38;5054825;28;20301;-81
2021/11/25 03:26:26;;;;;;;4.13;3.23;;;;;;;5.12;72.26;100435.72;5055753;28;20205;-82
2021/11/25 03:28:53;;;;;;;3.30;3.00;;;;;;;5.12;72.34;100430.44;5048750;28;20226;-80
2021/11/25 03:31:25;;;;;;;3.30;3.00;;;;;;;5.12;72.26;100439.22;5057712;28;20205;-79
2021/11/25 03:33:51;;;;;;;3.50;3.20;;;;;;;5.12;72.03;100433.09;5041032;28;20572;-80
2021/11/25 03:36:18;;;;;;;3.37;3.03;;;;;;;5.12;72.38;100438.38;5048310;28;20225;-80
2021/11/25 03:38:45;;;;;;;3.17;2.87;;;;;;;5.13;72.17;100437.44;5057955;28;20243;-80
2021/11/25 03:41:14;;;;;;;3.90;3.40;;;;;;;5.13;72.27;100424.25;5054786;28;20229;-80
2021/11/25 03:43:41;;;;;;;3.50;3.20;;;;;;;5.12;72.57;100423.38;5049572;28;20228;-82
2021/11/25 03:46:08;;;;;;;4.60;3.37;;;;;;;5.13;72.18;100413.69;5031542;28;20216;-82
2021/11/25 03:48:36;;;;;;;4.10;3.30;;;;;;;5.13;72.38;100413.69;5053647;28;20233;-81
2021/11/25 03:51:05;;;;;;;4.03;2.93;;;;;;;5.13;72.22;100413.69;5048531;28;20221;-81
2021/11/25 03:53:33;;;;;;;4.43;3.20;;;;;;;5.11;71.92;100411.13;5049186;28;20218;-81
2021/11/25 03:55:59;;;;;;;4.13;3.57;;;;;;;5.12;72.00;100417.25;5032744;28;20790;-81
2021/11/25 03:58:26;;;;;;;3.40;3.03;;;;;;;5.11;72.18;100412.91;5036542;28;20233;-80
2021/11/25 04:00:53;;;;;;;4.27;3.10;;;;;;;5.09;72.16;100410.31;5050962;28;20205;-82
2021/11/25 04:03:21;;;;;;;4.53;3.23;;;;;;;5.07;72.14;100409.53;5026558;28;20561;-82
2021/11/25 04:05:49;;;;;;;3.37;3.07;;;;;;;5.07;72.00;100408.66;5043682;28;20203;-81
2021/11/25 04:08:15;;;;;;;4.73;3.67;;;;;;;5.06;72.06;100401.69;5035075;28;20218;-82
2021/11/25 04:10:43;;;;;;;3.57;3.20;;;;;;;5.07;72.15;100411.31;5053557;28;20683;-81
2021/11/25 04:13:10;;;;;;;3.93;3.03;;;;;;;5.07;71.93;100408.66;5042060;28;20206;-81
2021/11/25 04:15:37;;;;;;;3.70;3.40;;;;;;;5.06;72.05;100412.22;5046054;28;20225;-81
2021/11/25 04:18:03;;;;;;;4.43;3.10;;;;;;;5.05;71.86;100400.81;5055011;28;20217;-81
2021/11/25 04:20:31;;;;;;;4.03;3.03;;;;;;;5.05;71.99;100406.09;5040164;28;20595;-81
2021/11/25 04:22:59;;;;;;;3.23;2.93;;;;;;;5.05;71.57;100399.97;5041760;28;20663;-81
2021/11/25 04:25:26;;;;;;;3.70;2.97;;;;;;;5.05;71.72;100400.81;5055190;28;20217;-81
2021/11/25 04:27:53;;;;;;;3.20;2.90;;;;;;;5.07;71.51;100395.47;5050558;28;20214;-81
2021/11/25 04:30:31;;;;;;;3.83;3.40;;;;;;;5.07;71.38;100392.84;5041728;28;20225;-81
2021/11/25 04:35:42;;;;;;;4.17;3.30;;;;;;;5.07;71.77;100374.34;5033472;28;20366;-82
2021/11/25 04:38:12;;;;;;;3.87;3.13;;;;;;;5.07;71.68;100375.22;5046803;28;20201;-82
2021/11/25 04:40:43;;;;;;;4.03;3.13;;;;;;;5.07;71.69;100371.72;5044681;28;20686;-81
2021/11/25 04:43:09;;;;;;;4.57;3.60;;;;;;;5.07;71.69;100362.00;5047250;28;20263;-81
2021/11/25 04:45:39;;;;;;;3.83;3.40;;;;;;;5.08;71.99;100363.72;5039293;28;20202;-80
2021/11/25 04:48:06;;;;;;;4.73;3.17;;;;;;;5.08;71.53;100370.78;5024145;28;20218;-81
2021/11/25 04:50:34;;;;;;;3.73;3.27;;;;;;;5.08;71.87;100368.16;5030594;28;20207;-81
2021/11/25 04:53:01;;;;;;;5.17;3.80;;;;;;;5.09;71.44;100369.88;5023877;28;20217;-82
2021/11/25 04:55:29;;;;;;;6.53;3.80;;;;;;;5.08;71.43;100362.88;5025523;28;20234;-82
2021/11/25 04:57:55;;;;;;;4.53;3.90;;;;;;;5.07;71.75;100362.00;5022153;28;20235;-81
2021/11/25 05:00:25;;;;;;;5.17;4.00;;;;;;;5.08;71.83;100360.22;5025832;28;20226;-81
2021/11/25 05:02:52;;;;;;;4.60;4.07;;;;;;;5.07;71.74;100356.75;5026079;28;20210;-82
2021/11/25 05:05:18;;;;;;;4.83;4.10;;;;;;;5.07;71.68;100358.53;5031793;28;20205;-81
2021/11/25 05:07:45;;;;;;;4.23;3.77;;;;;;;5.06;71.80;100356.81;5027384;28;20256;-82
2021/11/25 05:10:12;;;;;;;4.67;3.63;;;;;;;5.05;71.64;100358.59;5038882;28;20691;-81
2021/11/25 05:12:40;;;;;;;4.93;4.30;;;;;;;5.05;71.57;100358.59;5025821;28;20511;-80
2021/11/25 05:15:09;;;;;;;5.70;4.40;;;;;;;5.05;71.83;100350.66;5033697;28;20226;-80
2021/11/25 05:17:36;;;;;;;5.33;4.10;;;;;;;5.04;72.09;100354.22;5030196;28;20671;-80
2021/11/25 05:20:04;;;;;;;6.67;4.37;;;;;;;5.04;71.95;100353.38;5025897;28;20609;-80
2021/11/25 05:22:30;;;;;;;5.53;4.70;;;;;;;5.04;72.15;100363.94;5037824;28;20293;-80
2021/11/25 05:24:57;;;;;;;6.67;4.77;;;;;;;5.02;71.99;100350.81;5042908;28;20564;-81
2021/11/25 05:27:23;;;;;;;5.37;4.50;;;;;;;5.01;72.36;100350.91;5031036;28;20198;-80
2021/11/25 05:29:51;;;;;;;4.60;4.10;;;;;;;5.01;72.11;100348.25;5030672;28;20223;-80
2021/11/25 05:32:18;;;;;;;7.20;4.50;;;;;;;4.99;72.39;100352.75;5031214;28;20203;-81
2021/11/25 05:34:46;;;;;;;6.97;5.23;;;;;;;5.00;72.66;100354.47;5038476;28;20221;-81
2021/11/25 05:37:12;;;;;;;5.37;4.67;;;;;;;5.00;72.71;100357.09;5022368;28;20226;-80
2021/11/25 05:39:39;;;;;;;6.37;4.50;;;;;;;4.99;72.81;100348.31;5026258;28;20224;-80
2021/11/25 05:42:06;;;;;;;6.30;5.00;;;;;;;4.97;72.74;100346.69;5023305;28;20246;-80
2021/11/25 05:44:33;;;;;;;5.70;4.60;;;;;;;4.96;72.92;100352.88;5028625;28;20236;-81
2021/11/25 05:47:01;;;;;;;6.97;5.33;;;;;;;4.96;73.15;100355.53;5019631;28;20225;-80
2021/11/25 05:49:28;;;;;;;5.60;5.00;;;;;;;4.95;73.28;100345.88;5033918;28;20248;-80
2021/11/25 05:51:54;;;;;;;7.57;5.23;;;;;;;4.95;73.47;100348.53;5027897;28;20203;-82
2021/11/25 05:54:21;;;;;;;6.37;4.90;;;;;;;4.94;73.35;100342.38;5026105;28;20229;-82
2021/11/25 05:56:47;;;;;;;6.93;5.43;;;;;;;4.95;73.74;100332.69;5020011;28;20230;-83
2021/11/25 05:59:14;;;;;;;5.27;4.50;;;;;;;4.94;73.41;100326.56;5020346;28;20230;-82
2021/11/25 06:01:41;;;;;;;6.93;5.13;;;;;;;4.91;73.95;100324.06;5019749;28;20217;-82
2021/11/25 06:04:09;;;;;;;5.50;4.73;;;;;;;4.91;73.60;100326.69;5021850;28;20214;-82
2021/11/25 06:06:35;;;;;;;7.27;4.97;;;;;;;4.90;73.64;100330.25;5024923;28;20195;-81
2021/11/25 06:09:03;;;;;;;8.63;5.47;;;;;;;4.89;73.81;100313.56;5023528;28;20231;-81
2021/11/25 06:11:29;;;;;;;7.23;5.27;;;;;;;4.88;73.56;100309.22;5020310;28;20199;-82
2021/11/25 06:13:56;;;;;;;7.43;5.63;;;;;;;4.87;73.97;100304.84;5014714;28;20217;-82
2021/11/25 06:16:22;;;;;;;9.00;6.17;;;;;;;4.86;73.79;100311.06;5019059;28;20226;-82
2021/11/25 06:18:49;;;;;;;7.30;6.13;;;;;;;4.86;73.83;100310.19;5026938;28;20309;-82
2021/11/25 06:21:17;;;;;;;6.10;5.10;;;;;;;4.85;74.09;100313.75;5023391;28;21516;-82
2021/11/25 06:23:45;;;;;;;9.77;6.37;;;;;;;4.84;73.58;100306.78;5024938;28;20282;-82
2021/11/25 06:26:11;;;;;;;6.87;5.40;;;;;;;4.83;73.89;100308.59;5030932;28;20280;-83
2021/11/25 06:28:38;;;;;;;6.90;5.77;;;;;;;4.84;73.96;100309.41;5033157;28;20222;-84
2021/11/25 06:31:04;;;;;;;7.27;5.50;;;;;;;4.84;73.65;100314.69;5024680;28;20444;-84
2021/11/25 06:33:31;;;;;;;6.77;5.80;;;;;;;4.84;73.56;100307.63;5023002;28;20660;-84
2021/11/25 06:35:58;;;;;;;8.03;5.43;;;;;;;4.83;74.03;100305.09;5031672;28;20232;-83
2021/11/25 06:38:26;;;;;;;8.77;6.30;;;;;;;4.84;73.47;100307.63;5040920;28;20226;-84
2021/11/25 06:40:52;;;;;;;6.77;5.83;;;;;;;4.86;73.68;100305.78;5036517;28;20289;-84
2021/11/25 06:43:19;;;;;;;7.73;5.97;;;;;;;4.86;73.77;100302.28;5042681;28;20572;-83
2021/11/25 06:45:46;;;;;;;7.27;5.57;;;;;;;4.85;73.56;100306.69;5052727;28;20887;-82
2021/11/25 06:48:13;;;;;;;6.70;5.77;;;;;;;4.86;73.90;100308.41;5039722;28;20267;-81
2021/11/25 06:50:39;;;;;;;8.20;6.13;;;;;;;4.86;73.47;100310.19;5050881;28;20213;-83
2021/11/25 06:53:07;;;;;;;7.03;5.67;;;;;;;4.87;73.23;100311.91;5051641;28;20239;-82
2021/11/25 06:55:35;;;;;;;7.30;5.87;;;;;;;4.86;73.58;100303.16;5051219;28;20594;-82
2021/11/25 06:58:01;;;;;;;7.20;6.30;;;;;;;4.85;73.56;100300.56;5052731;28;20303;-82
2021/11/25 07:00:28;;;;;;;7.37;6.03;;;;;;;4.84;73.34;100302.34;5051038;28;20297;-83
2021/11/25 07:02:55;;;;;;;7.43;5.93;;;;;;;4.85;73.27;100300.56;5039176;28;20668;-83
2021/11/25 07:05:23;;;;;;;6.83;6.07;;;;;;;4.84;73.25;100296.22;5051200;28;20205;-84
2021/11/25 07:07:50;;;;;;;7.43;5.77;;;;;;;4.84;72.71;100299.72;5042249;28;20214;-82
2021/11/25 07:10:16;;;;;;;7.67;6.20;;;;;;;4.83;73.36;100303.31;5023523;28;20231;-83
2021/11/25 07:12:46;;;;;;;7.77;6.43;;;;;;;4.82;72.96;100298.94;5046719;28;20664;-82
2021/11/25 07:15:14;;;;;;;7.50;6.27;;;;;;;4.82;73.22;100298.94;5051244;28;20237;-83
2021/11/25 07:17:41;;;;;;;8.67;7.10;;;;;;;4.83;73.06;100303.31;5030745;28;20290;-82
2021/11/25 07:20:09;;;;;;;8.23;6.70;;;;;;;4.83;72.60;100305.09;5045989;28;20313;-82
2021/11/25 07:22:38;;;;;;;9.80;7.03;;;;;;;4.84;72.74;100297.06;5051557;28;20661;-82
2021/11/25 07:25:06;;;;;;;8.13;6.93;;;;;;;4.86;72.69;100283.81;5050895;28;20648;-83
2021/11/25 07:27:33;;;;;;;7.60;6.07;;;;;;;4.86;73.07;100286.44;5051624;28;20620;-83
2021/11/25 07:30:01;;;;;;;8.00;6.43;;;;;;;4.86;72.96;100282.03;5050917;28;20237;-83
2021/11/25 07:32:27;;;;;;;7.07;6.00;;;;;;;4.86;72.98;100289.09;5041395;28;20225;-82
2021/11/25 07:34:54;;;;;;;9.47;6.50;;;;;;;4.86;72.61;100278.53;5037720;28;20206;-82
2021/11/25 07:37:20;;;;;;;7.90;6.40;;;;;;;4.85;73.04;100285.59;5052370;28;20209;-83
2021/11/25 07:39:47;;;;;;;7.10;6.00;;;;;;;4.85;73.00;100282.97;5034685;28;20235;-82
2021/11/25 07:42:14;;;;;;;7.90;6.53;;;;;;;4.86;72.91;100284.66;5030850;28;20703;-82
2021/11/25 07:44:41;;;;;;;9.80;6.77;;;;;;;4.85;72.66;100288.22;5042420;28;20221;-82
2021/11/25 07:47:09;;;;;;;9.43;6.37;;;;;;;4.84;73.08;100281.25;5027648;28;20209;-82
2021/11/25 07:49:37;;;;;;;8.10;6.70;;;;;;;4.85;72.91;100277.69;5050348;28;20229;-82
2021/11/25 07:52:04;;;;;;;8.07;6.70;;;;;;;4.85;73.24;100282.09;5032182;28;20210;-82
2021/11/25 07:54:31;;;;;;;6.90;6.10;;;;;;;4.85;73.17;100282.09;5034199;28;20221;-84
2021/11/25 07:56:59;;;;;;;9.03;6.17;;;;;;;4.85;73.32;100272.41;5052759;28;20233;-83
2021/11/25 07:59:26;;;;;;;7.07;6.10;;;;;;;4.84;73.09;100268.06;5053527;28;20234;-83
2021/11/25 08:01:53;;;;;;;7.53;5.70;;;;;;;4.85;73.11;100274.19;5049245;28;20248;-81
2021/11/25 08:04:21;;;;;;;9.10;6.93;;;;;;;4.84;73.47;100272.47;5033743;28;20214;-82
2021/11/25 08:06:47;;;;;;;9.00;6.73;;;;;;;4.85;73.58;100271.53;5038368;28;20304;-83
2021/11/25 08:09:14;;;;;;;9.47;7.47;;;;;;;4.86;73.24;100267.97;5040607;28;20699;-82
2021/11/25 08:11:41;;;;;;;9.73;7.93;;;;;;;4.85;73.54;100263.63;5055818;28;20226;-83
2021/11/25 08:14:07;;;;;;;10.07;6.97;;;;;;;4.85;73.51;100256.56;5055504;28;20205;-83
2021/11/25 08:16:34;;;;;;;8.57;6.63;;;;;;;4.86;73.72;100254.78;5055857;28;20239;-82
2021/11/25 08:19:00;;;;;;;9.80;7.23;;;;;;;4.87;73.61;100260.00;5055067;28;20234;-82
2021/11/25 08:21:28;;;;;;;11.57;7.67;;;;;;;4.88;73.67;100245.03;5056008;28;20209;-82
2021/11/25 08:23:55;;;;;;;9.13;7.47;;;;;;;4.91;74.15;100246.66;5052411;28;20746;-82
2021/11/25 08:26:21;;;;;;;9.23;7.00;;;;;;;4.91;73.81;100244.03;5017311;28;20209;-81
2021/11/25 08:28:48;;;;;;;9.30;6.97;;;;;;;4.93;74.05;100239.53;5040980;28;20244;-83
2021/11/25 08:31:14;;;;;;;9.00;7.07;;;;;;;4.93;73.74;100242.19;5051539;28;20209;-83
2021/11/25 08:33:41;;;;;;;9.90;8.37;;;;;;;4.95;73.97;100242.97;5053436;28;20219;-82
2021/11/25 08:36:07;;;;;;;9.07;7.60;;;;;;;4.95;73.99;100250.88;5052746;28;20229;-82
2021/11/25 08:38:35;;;;;;;9.23;8.23;;;;;;;4.95;73.88;100248.25;5053695;28;20308;-83
2021/11/25 08:41:02;;;;;;;11.10;8.53;;;;;;;4.99;74.12;100244.53;5053090;28;20207;-84
2021/11/25 08:43:29;;;;;;;11.23;7.57;;;;;;;5.00;74.10;100246.25;5053639;28;20213;-84
2021/11/25 08:45:55;;;;;;;10.70;8.23;;;;;;;5.01;73.77;100240.91;5054589;28;20732;-83
2021/11/25 08:48:22;;;;;;;9.83;7.70;;;;;;;5.03;74.15;100240.81;5054176;28;20316;-84
2021/11/25 08:50:48;;;;;;;12.67;8.87;;;;;;;5.05;73.74;100242.44;5054136;28;20217;-84
2021/11/25 08:53:16;;;;;;;10.23;8.30;;;;;;;5.07;74.16;100242.38;5053107;28;20216;-82
2021/11/25 08:55:43;;;;;;;10.93;9.27;;;;;;;5.06;73.66;100244.16;5051077;28;20237;-82
2021/11/25 08:58:10;;;;;;;12.93;8.43;;;;;;;5.07;73.87;100240.59;5049962;28;20248;-82
2021/11/25 09:00:37;;;;;;;9.27;7.73;;;;;;;5.10;73.67;100248.38;5053922;28;20218;-82
2021/11/25 09:03:04;;;;;;;10.37;8.67;;;;;;;5.12;74.10;100237.75;5029197;28;20213;-81
2021/11/25 09:05:32;;;;;;;13.57;9.03;;;;;;;5.13;73.94;100235.03;5054873;28;20213;-82
2021/11/25 09:07:58;;;;;;;11.20;9.37;;;;;;;5.15;74.00;100227.06;5044306;28;20217;-83
2021/11/25 09:10:25;;;;;;;11.90;8.50;;;;;;;5.18;73.96;100221.63;5052431;28;20251;-82
2021/11/25 09:12:53;;;;;;;13.13;8.90;;;;;;;5.19;74.00;100213.66;5053689;28;20213;-82
2021/11/25 09:15:20;;;;;;;13.27;9.70;;;;;;;5.17;73.76;100218.13;5054070;28;20296;-82
2021/11/25 09:17:47;;;;;;;13.40;10.23;;;;;;;5.19;73.80;100218.06;5052903;28;20233;-83
2021/11/25 09:20:14;;;;;;;13.30;9.63;;;;;;;5.21;74.02;100217.03;5052768;28;20698;-82
2021/11/25 09:22:40;;;;;;;13.20;9.77;;;;;;;5.25;73.73;100217.75;5052331;28;20218;-83
2021/11/25 09:25:08;;;;;;;13.17;10.60;;;;;;;5.30;73.35;100226.31;5052812;28;20585;-84
2021/11/25 09:27:35;;;;;;;13.37;10.90;;;;;;;5.35;73.82;100234.03;5053346;28;20209;-83
2021/11/25 09:30:03;;;;;;;13.63;10.77;;;;;;;5.41;73.61;100231.06;5044618;28;20233;-84
2021/11/25 09:32:30;;;;;;;14.90;11.63;;;;;;;5.44;73.54;100229.13;5047920;28;20205;-83
2021/11/25 09:34:56;;;;;;;15.30;11.27;;;;;;;5.47;73.76;100228.97;5042832;28;20208;-83
2021/11/25 09:37:23;;;;;;;14.27;11.23;;;;;;;5.51;73.72;100227.06;5052323;28;20225;-84
2021/11/25 09:39:49;;;;;;;14.27;11.13;;;;;;;5.55;73.58;100218.88;5053869;28;20225;-83
2021/11/25 09:42:16;;;;;;;17.87;11.37;;;;;;;5.62;73.67;100216.81;5053042;28;20215;-82
2021/11/25 09:44:42;;;;;;;15.63;12.40;;;;;;;5.65;73.41;100227.22;5052916;28;20210;-83
2021/11/25 09:47:10;;;;;;;17.43;13.80;;;;;;;5.68;73.47;100227.06;5035902;28;20210;-83
2021/11/25 09:49:37;;;;;;;17.40;13.53;;;;;;;5.71;73.29;100226.06;5053192;28;20229;-83
2021/11/25 09:52:04;;;;;;;18.57;12.20;;;;;;;5.72;73.09;100231.28;5051911;28;20304;-81
2021/11/25 09:54:31;;;;;;;16.07;12.63;;;;;;;5.73;72.93;100227.69;5052441;28;20221;-83
2021/11/25 09:56:57;;;;;;;16.93;12.87;;;;;;;5.78;72.75;100230.09;5052375;28;20236;-83
2021/11/25 09:59:25;;;;;;;18.37;14.03;;;;;;;5.81;72.67;100222.03;5052348;28;20229;-83
2021/11/25 10:01:52;;;;;;;21.40;13.60;;;;;;;5.84;72.42;100227.16;5034335;28;20217;-83
2021/11/25 10:04:20;;;;;;;17.57;13.10;;;;;;;5.89;72.77;100220.75;5046000;28;20219;-82
2021/11/25 10:06:51;;;;;;;16.87;12.63;;;;;;;5.91;72.12;100218.84;5037380;28;20198;-83
2021/11/25 10:09:30;;;;;;;16.20;12.30;;;;;;;5.90;71.04;100219.81;5039581;28;20229;-82
2021/11/25 10:11:56;;;;;;;16.67;13.87;;;;;;;5.88;70.58;100212.84;5052846;28;20209;-83
2021/11/25 10:14:35;;;;;;;17.37;13.20;;;;;;;5.88;70.52;100223.44;5052311;28;20209;-83
2021/11/25 10:17:02;;;;;;;16.17;12.97;;;;;;;5.90;70.41;100214.53;5052205;28;20239;-82
2021/11/25 10:19:30;;;;;;;19.20;13.47;;;;;;;5.90;70.56;100206.59;5052197;28;20268;-83
2021/11/25 10:21:59;;;;;;;14.33;12.83;;;;;;;5.93;70.48;100206.41;5052885;28;20580;-83
2021/11/25 10:24:34;;;;;;;14.43;12.63;;;;;;;5.95;70.58;100208.13;5052042;28;20249;-83
2021/11/25 10:27:13;;;;;;;16.33;12.63;;;;;;;5.96;70.57;100199.25;5052083;28;20230;-83
2021/11/25 10:29:40;;;;;;;16.97;13.03;;;;;;;5.98;70.38;100206.19;5051997;28;20229;-83
2021/11/25 10:32:07;;;;;;;17.03;13.10;;;;;;;5.98;70.50;100194.75;5052509;28;20242;-84
2021/11/25 10:34:40;;;;;;;21.67;15.13;;;;;;;5.99;70.38;100199.97;5052243;28;20205;-83
2021/11/25 10:37:17;;;;;;;18.13;14.27;;;;;;;6.00;70.32;100203.47;5052222;28;20283;-83
2021/11/25 10:42:33;;;;;;;14.17;12.30;;;;;;;6.04;70.62;100197.94;5051477;28;20213;-83
2021/11/25 10:45:00;;;;;;;16.73;12.90;;;;;;;6.06;70.40;100198.72;5051760;28;20212;-82
2021/11/25 10:47:28;;;;;;;17.47;13.60;;;;;;;6.07;70.58;100196.94;5038156;28;20660;-83
2021/11/25 10:49:57;;;;;;;14.90;13.23;;;;;;;6.05;69.84;100189.09;5051492;28;20233;-83
2021/11/25 10:52:29;;;;;;;16.70;13.50;;;;;;;6.07;70.01;100179.28;5046462;28;20236;-82
2021/11/25 10:54:57;;;;;;;18.30;12.43;;;;;;;6.10;70.04;100175.59;5024456;28;20226;-83
2021/11/25 10:57:36;;;;;;;17.90;13.13;;;;;;;6.10;70.24;100181.75;5025955;28;20229;-83
2021/11/25 11:00:09;;;;;;;17.93;13.13;;;;;;;6.12;70.19;100176.38;5022954;28;20225;-83
2021/11/25 11:02:36;;;;;;;17.13;12.17;;;;;;;6.13;70.60;100168.38;5038704;28;20293;-83
2021/11/25 11:05:10;;;;;;;17.03;12.90;;;;;;;6.15;70.19;100170.94;5051983;28;20206;-82
2021/11/25 11:07:38;;;;;;;16.07;13.13;;;;;;;6.14;70.08;100167.44;5040613;28;20202;-83
2021/11/25 11:10:19;;;;;;;14.70;13.00;;;;;;;6.15;70.20;100166.50;5030217;28;20726;-83
2021/11/25 11:12:51;;;;;;;17.47;13.10;;;;;;;6.16;69.93;100167.38;5016585;28;20510;-82
2021/11/25 11:15:28;;;;;;;20.10;15.10;;;;;;;6.14;70.17;100156.88;5028208;28;20294;-82
2021/11/25 11:18:42;;;;;;;16.47;13.70;;;;;;;6.14;69.90;100164.78;5024278;28;20255;-82
2021/11/25 11:20:52;;;;;;;17.83;15.20;;;;;;;6.15;70.00;100168.28;5039614;28;20699;-82
2021/11/25 11:23:22;;;;;;;16.57;14.03;;;;;;;6.14;69.76;100169.22;5045717;28;20228;-81
2021/11/25 11:25:52;;;;;;;17.87;14.10;;;;;;;6.16;69.80;100168.22;5034757;28;20292;-83
2021/11/25 11:28:19;;;;;;;14.13;12.07;;;;;;;6.18;70.29;100163.72;5028198;28;20249;-82
2021/11/25 11:30:47;;;;;;;16.37;12.27;;;;;;;6.19;69.91;100167.22;5028175;28;20297;-82
2021/11/25 11:33:15;;;;;;;13.17;11.17;;;;;;;6.20;69.65;100168.91;5021328;28;20203;-82
2021/11/25 11:35:43;;;;;;;14.30;11.90;;;;;;;6.20;69.78;100167.13;5025290;28;20213;-82